Big Bear Station Historical Data
Daily Summary for June 26, 2019 Units:  English    Metric   Both
Next Day »
Daily Weekly Monthly Yearly Custom
  High: Low: Average:
Temperature: 76.6 °F 40.3 °F 58.2 °F
Dew Point: 36.6 °F 16.4 °F 28 °F
Humidity: 75% 18% 34%
Wind Speed: 9.4mph 0mph 0.6mph
Wind Gust: -999mph - -
Wind- - WNW
Pressure: 23.55 in 23.46 in -
Precipitation: 0 in    
Historical Graphs
 
 
Tabular Data for June 26, 2019
Time Temperature Dew Point Pressure Wind Wind Speed Wind Gust Humidity Rainfall Rate (Hourly)
00:03 49.3 °F 21.4 °F 23.49 in Calm   -999 mph 33% 0.00 in
00:18 48.6 °F 22.8 °F 23.49 in Calm   -999 mph 36% 0.00 in
00:33 48 °F 22.9 °F 23.49 in Calm   -999 mph 37% 0.00 in
00:48 47.1 °F 22.1 °F 23.49 in Calm   -999 mph 37% 0.00 in
01:04 46.2 °F 16.4 °F 23.49 in Calm   -999 mph 30% 0.00 in
01:19 45.7 °F 18.9 °F 23.49 in Calm   -999 mph 34% 0.00 in
01:34 45.1 °F 22.2 °F 23.48 in Calm   -999 mph 40% 0.00 in
01:49 44.6 °F 19.3 °F 23.48 in Calm   -999 mph 36% 0.00 in
02:04 44.6 °F 16.5 °F 23.48 in Calm   -999 mph 32% 0.00 in
02:20 44.2 °F 22 °F 23.48 in Calm   -999 mph 41% 0.00 in
02:35 43.9 °F 20.5 °F 23.48 in Calm   -999 mph 39% 0.00 in
02:50 43.5 °F 21.9 °F 23.48 in Calm   -999 mph 42% 0.00 in
03:05 43.2 °F 19.3 °F 23.47 in Calm   -999 mph 38% 0.00 in
03:20 42.6 °F 19.9 °F 23.47 in Calm   -999 mph 40% 0.00 in
03:36 42.3 °F 20.3 °F 23.47 in Calm   -999 mph 41% 0.00 in
03:51 42.1 °F 21.7 °F 23.47 in Calm   -999 mph 44% 0.00 in
04:06 41.9 °F 25.5 °F 23.46 in Calm   -999 mph 52% 0.00 in
04:21 41.5 °F 21.7 °F 23.47 in Calm   -999 mph 45% 0.00 in
04:37 41.4 °F 21.6 °F 23.47 in Calm   -999 mph 45% 0.00 in
04:52 41.2 °F 19.8 °F 23.47 in Calm   -999 mph 42% 0.00 in
05:07 41 °F 20.7 °F 23.47 in Calm   -999 mph 44% 0.00 in
05:22 40.3 °F 24.5 °F 23.48 in Calm   -999 mph 53% 0.00 in
05:37 40.5 °F 19.7 °F 23.48 in Calm   -999 mph 43% 0.00 in
05:53 40.3 °F 24.1 °F 23.48 in Calm   -999 mph 52% 0.00 in
06:08 40.5 °F 30 °F 23.49 in Calm   -999 mph 66% 0.00 in
06:23 40.5 °F 31.8 °F 23.49 in Calm   -999 mph 71% 0.00 in
06:38 40.6 °F 33.3 °F 23.49 in Calm   -999 mph 75% 0.00 in
06:53 41.2 °F 33.9 °F 23.50 in Calm   -999 mph 75% 0.00 in
07:09 43 °F 34.2 °F 23.50 in Calm   -999 mph 71% 0.00 in
07:24 43.5 °F 34.7 °F 23.50 in Calm   -999 mph 71% 0.00 in
07:39 44.2 °F 36.1 °F 23.50 in Calm   -999 mph 73% 0.00 in
07:54 46.2 °F 36.6 °F 23.51 in Calm   -999 mph 69% 0.00 in
08:10 49.5 °F 35.8 °F 23.51 in Calm   -999 mph 59% 0.00 in
08:25 54.5 °F 32.5 °F 23.51 in Calm   -999 mph 43% 0.00 in
08:40 57.4 °F 34.5 °F 23.51 in Calm   -999 mph 42% 0.00 in
08:55 59.2 °F 34.9 °F 23.51 in NNW 1.7 mph -999 mph 40% 0.00 in
09:10 60.4 °F 36 °F 23.51 in Calm   -999 mph 40% 0.00 in
09:26 61.3 °F 35.5 °F 23.51 in NW 2.7 mph -999 mph 38% 0.00 in
09:41 63 °F 35.6 °F 23.51 in Calm   -999 mph 36% 0.00 in
09:56 63.7 °F 35.5 °F 23.51 in Calm   -999 mph 35% 0.00 in
10:11 64.4 °F 33.9 °F 23.51 in Calm   -999 mph 32% 0.00 in
10:26 64.9 °F 32.7 °F 23.52 in NW 2.2 mph -999 mph 30% 0.00 in
10:42 65.8 °F 35.1 °F 23.52 in Calm   -999 mph 32% 0.00 in
10:57 66.2 °F 33 °F 23.53 in Calm   -999 mph 29% 0.00 in
11:12 67.3 °F 33.9 °F 23.53 in Calm   -999 mph 29% 0.00 in
11:27 68 °F 27.7 °F 23.53 in NNW 9.4 mph -999 mph 22% 0.00 in
11:42 70.3 °F 30.7 °F 23.53 in Calm   -999 mph 23% 0.00 in
11:58 72.3 °F 31.3 °F 23.53 in Calm   -999 mph 22% 0.00 in
12:13 74.1 °F 33.9 °F 23.53 in NW 1.1 mph -999 mph 23% 0.00 in
12:28 73.4 °F 32.2 °F 23.54 in NNW 1.7 mph -999 mph 22% 0.00 in
12:43 73.8 °F 31.4 °F 23.54 in North 1.1 mph -999 mph 21% 0.00 in
12:58 74.7 °F 33.3 °F 23.54 in Calm   -999 mph 22% 0.00 in
13:14 75 °F 29.9 °F 23.54 in Calm   -999 mph 19% 0.00 in
13:29 76.5 °F 31.2 °F 23.53 in Calm   -999 mph 19% 0.00 in
13:44 76.3 °F 29.7 °F 23.53 in Calm   -999 mph 18% 0.00 in
13:59 76.1 °F 30.8 °F 23.54 in WNW 2.2 mph -999 mph 19% 0.00 in
14:15 75.9 °F 31.9 °F 23.54 in NW 3.2 mph -999 mph 20% 0.00 in
14:30 75.2 °F 32.6 °F 23.54 in NNW 4.2 mph -999 mph 21% 0.00 in
14:45 76.6 °F 33.7 °F 23.54 in NW 4.2 mph -999 mph 21% 0.00 in
15:00 75.6 °F 32.9 °F 23.54 in NW 3.7 mph -999 mph 21% 0.00 in
15:15 74.1 °F 31.7 °F 23.54 in WNW 2.2 mph -999 mph 21% 0.00 in
15:31 73.8 °F 32.6 °F 23.54 in Calm   -999 mph 22% 0.00 in
15:46 73 °F 33 °F 23.54 in Calm   -999 mph 23% 0.00 in
16:01 73.2 °F 33.2 °F 23.54 in NW 3.2 mph -999 mph 23% 0.00 in
16:16 72.9 °F 34 °F 23.53 in West 4.7 mph -999 mph 24% 0.00 in
16:32 73.8 °F 32.6 °F 23.53 in Calm   -999 mph 22% 0.00 in
16:47 73.6 °F 28.8 °F 23.53 in Calm   -999 mph 19% 0.00 in
17:02 74.7 °F 28.4 °F 23.53 in Calm   -999 mph 18% 0.00 in
17:17 75.9 °F 30.7 °F 23.52 in Calm   -999 mph 19% 0.00 in
17:33 74.8 °F 31 °F 23.52 in Calm   -999 mph 20% 0.00 in
17:48 73.8 °F 30.2 °F 23.52 in Calm   -999 mph 20% 0.00 in
18:03 73 °F 31.9 °F 23.52 in East 2.7 mph -999 mph 22% 0.00 in
18:18 71.6 °F 30.7 °F 23.52 in NE 2.7 mph -999 mph 22% 0.00 in
18:33 69.3 °F 29.9 °F 23.52 in NW 1.1 mph -999 mph 23% 0.00 in
18:49 69.8 °F 31.4 °F 23.53 in Calm   -999 mph 24% 0.00 in
19:04 68.2 °F 30 °F 23.53 in Calm   -999 mph 24% 0.00 in
19:19 66.4 °F 28.5 °F 23.53 in Calm   -999 mph 24% 0.00 in
19:34 62.2 °F 21.8 °F 23.53 in Calm   -999 mph 21% 0.00 in
19:49 60.4 °F 21.4 °F 23.53 in Calm   -999 mph 22% 0.00 in
20:05 59.4 °F 20.5 °F 23.53 in Calm   -999 mph 22% 0.00 in
20:20 58.8 °F 21.1 °F 23.53 in Calm   -999 mph 23% 0.00 in
20:35 58.3 °F 21.6 °F 23.54 in Calm   -999 mph 24% 0.00 in
20:50 57.7 °F 19.1 °F 23.54 in Calm   -999 mph 22% 0.00 in
21:05 57.4 °F 19.9 °F 23.54 in Calm   -999 mph 23% 0.00 in
21:21 56.7 °F 24.8 °F 23.54 in Calm   -999 mph 29% 0.00 in
21:36 56.3 °F 22.7 °F 23.55 in Calm   -999 mph 27% 0.00 in
21:51 55 °F 24.9 °F 23.55 in Calm   -999 mph 31% 0.00 in
22:06 54.3 °F 25.8 °F 23.55 in Calm   -999 mph 33% 0.00 in
22:21 53.2 °F 26.2 °F 23.55 in Calm   -999 mph 35% 0.00 in
22:37 52.3 °F 25.4 °F 23.55 in Calm   -999 mph 35% 0.00 in
22:52 51.6 °F 28.1 °F 23.55 in Calm   -999 mph 40% 0.00 in
23:07 51.1 °F 29.4 °F 23.55 in Calm   -999 mph 43% 0.00 in
23:22 50.4 °F 28.2 °F 23.55 in Calm   -999 mph 42% 0.00 in
23:37 49.8 °F 27 °F 23.55 in Calm   -999 mph 41% 0.00 in
23:53 48.9 °F 25.6 °F 23.54 in Calm   -999 mph 40% 0.00 in
Big Bear CA Weather